createdAt,value
2022-12-23T00:01:37.728Z,48.83
2022-12-23T00:04:05.118Z,46.55
2022-12-23T00:06:32.609Z,58.97
2022-12-23T00:09:00.470Z,49.70
2022-12-23T00:11:28.804Z,41.58
2022-12-23T00:14:21.074Z,33.50
2022-12-23T00:16:51.162Z,40.03
2022-12-23T00:19:18.514Z,42.63
2022-12-23T00:21:45.512Z,35.72
2022-12-23T00:24:12.492Z,34.95
2022-12-23T00:26:39.351Z,36.85
2022-12-23T00:29:07.501Z,33.42
2022-12-23T00:31:34.589Z,30.90
2022-12-23T00:34:01.610Z,29.15
2022-12-23T00:36:30.826Z,28.25
2022-12-23T00:39:18.522Z,30.63
2022-12-23T00:42:04.673Z,26.15
2022-12-23T00:44:32.607Z,25.40
2022-12-23T00:46:59.544Z,37.20
2022-12-23T00:49:44.724Z,28.25
2022-12-23T00:52:15.865Z,26.55
2022-12-23T00:54:43.217Z,25.52
2022-12-23T00:57:10.968Z,20.50
2022-12-23T00:59:38.521Z,26.73
2022-12-23T01:02:24.391Z,20.83
2022-12-23T01:05:09.994Z,21.67
2022-12-23T01:07:37.684Z,19.00
2022-12-23T01:10:04.965Z,24.90
2022-12-23T01:12:32.386Z,20.55
2022-12-23T01:14:59.341Z,30.48
2022-12-23T01:17:26.402Z,18.13
2022-12-23T01:19:53.493Z,20.05
2022-12-23T01:22:20.385Z,28.20
2022-12-23T01:24:47.494Z,19.75
2022-12-23T01:27:14.393Z,22.60
2022-12-23T01:29:41.465Z,22.67
2022-12-23T01:32:08.515Z,25.63
2022-12-23T01:34:37.351Z,18.70
2022-12-23T01:37:05.132Z,29.00
2022-12-23T01:39:32.627Z,27.88
2022-12-23T01:42:18.441Z,22.65
2022-12-23T01:44:57.106Z,20.67
2022-12-23T01:47:28.341Z,23.65
2022-12-23T01:49:59.481Z,27.88
2022-12-23T01:52:27.499Z,24.02
2022-12-23T01:54:55.572Z,23.38
2022-12-23T01:57:22.747Z,20.45
2022-12-23T02:00:08.726Z,28.00
2022-12-23T02:02:55.575Z,19.13
2022-12-23T02:05:23.640Z,27.02
2022-12-23T02:08:11.278Z,24.02
2022-12-23T02:10:49.864Z,22.88
2022-12-23T02:13:32.193Z,22.63
2022-12-23T02:16:17.966Z,21.70
2022-12-23T02:19:01.141Z,25.25
2022-12-23T02:21:46.201Z,24.20
2022-12-23T02:24:22.055Z,27.35
2022-12-23T02:27:12.524Z,25.25
2022-12-23T02:30:00.791Z,26.75
2022-12-23T02:32:43.041Z,21.55
2022-12-23T02:35:25.780Z,22.25
2022-12-23T02:38:00.540Z,20.98
2022-12-23T02:40:44.842Z,25.25
2022-12-23T02:43:40.461Z,26.23
2022-12-23T02:46:13.105Z,21.73
2022-12-23T02:48:59.158Z,28.17
2022-12-23T02:51:30.511Z,24.42
2022-12-23T02:54:01.036Z,25.92
2022-12-23T02:56:31.191Z,23.98
2022-12-23T02:59:11.800Z,24.20
2022-12-23T03:01:39.417Z,22.17
2022-12-23T03:04:06.891Z,23.17
2022-12-23T03:06:39.567Z,26.45
2022-12-23T03:09:07.604Z,25.60
2022-12-23T03:11:56.070Z,21.42
2022-12-23T03:14:47.964Z,29.58
2022-12-23T03:17:36.199Z,32.35
2022-12-23T03:20:15.216Z,23.00
2022-12-23T03:22:55.221Z,25.92
2022-12-23T03:25:29.000Z,23.95
2022-12-23T03:28:02.083Z,30.60
2022-12-23T03:30:30.094Z,31.65
2022-12-23T03:33:01.966Z,38.92
2022-12-23T03:35:32.753Z,37.05
2022-12-23T03:38:00.971Z,47.25
2022-12-23T03:40:32.548Z,43.03
2022-12-23T03:43:05.573Z,40.58
2022-12-23T03:45:39.166Z,36.97
2022-12-23T03:48:11.214Z,34.00
2022-12-23T03:50:39.269Z,39.28
2022-12-23T03:53:14.167Z,37.95
2022-12-23T03:55:48.707Z,34.75
2022-12-23T03:58:28.662Z,39.17
2022-12-23T04:01:17.620Z,31.75
2022-12-23T04:04:07.058Z,33.58
2022-12-23T04:06:39.679Z,32.90
2022-12-23T04:11:34.648Z,32.22
2022-12-23T04:14:01.504Z,28.58
2022-12-23T04:16:29.163Z,28.70
2022-12-23T04:18:56.022Z,34.95
2022-12-23T04:21:22.823Z,29.48
2022-12-23T04:23:49.452Z,28.52
2022-12-23T04:26:16.224Z,35.65
2022-12-23T04:28:42.891Z,32.47
2022-12-23T04:31:09.823Z,30.90
2022-12-23T04:33:36.507Z,34.80
2022-12-23T04:36:03.500Z,37.47
2022-12-23T04:38:30.231Z,34.22
2022-12-23T04:40:57.516Z,28.02
2022-12-23T04:43:24.386Z,32.90
2022-12-23T04:45:51.952Z,43.95
2022-12-23T04:48:18.998Z,42.08
2022-12-23T04:50:45.733Z,33.65
2022-12-23T04:53:12.543Z,25.15
2022-12-23T04:55:39.513Z,38.75
2022-12-23T04:58:06.156Z,30.65
2022-12-23T05:00:39.129Z,35.63
2022-12-23T05:03:06.895Z,81.43
2022-12-23T05:05:33.801Z,31.35
2022-12-23T05:08:05.127Z,29.25
2022-12-23T05:10:31.946Z,30.25
2022-12-23T05:12:58.833Z,29.85
2022-12-23T05:15:25.614Z,27.30
2022-12-23T05:17:52.314Z,27.63
2022-12-23T05:20:19.039Z,33.38
2022-12-23T05:22:45.716Z,28.40
2022-12-23T05:25:12.495Z,22.48
2022-12-23T05:27:39.254Z,18.13
2022-12-23T05:30:07.362Z,24.40
2022-12-23T05:32:34.113Z,19.35
2022-12-23T05:35:00.893Z,37.63
2022-12-23T05:37:27.613Z,21.83
2022-12-23T05:39:54.415Z,44.55
2022-12-23T05:42:21.116Z,19.63
2022-12-23T05:44:47.940Z,13.45
2022-12-23T05:47:14.959Z,14.73
2022-12-23T05:49:41.748Z,17.65
2022-12-23T05:52:08.526Z,24.38
2022-12-23T05:54:35.455Z,16.55
2022-12-23T05:57:02.192Z,15.55
2022-12-23T05:59:31.356Z,15.32
2022-12-23T06:01:58.968Z,18.27
2022-12-23T06:04:25.988Z,14.50
2022-12-23T06:06:52.933Z,12.32
2022-12-23T06:09:19.627Z,15.13
2022-12-23T06:11:46.414Z,15.07
2022-12-23T06:14:13.140Z,11.75
2022-12-23T06:16:40.047Z,11.98
2022-12-23T06:19:07.021Z,16.23
2022-12-23T06:21:33.820Z,14.30
2022-12-23T06:24:00.627Z,11.50
2022-12-23T06:26:27.468Z,13.70
2022-12-23T06:28:54.402Z,15.57
2022-12-23T06:31:21.248Z,14.15
2022-12-23T06:33:47.917Z,13.05
2022-12-23T06:36:14.766Z,12.18
2022-12-23T06:38:41.472Z,11.85
2022-12-23T06:41:08.177Z,14.55
2022-12-23T06:43:35.155Z,14.65
2022-12-23T06:46:01.929Z,17.83
2022-12-23T06:48:28.803Z,15.68
2022-12-23T06:50:55.717Z,17.05
2022-12-23T06:53:22.540Z,14.13
2022-12-23T06:55:49.350Z,14.88
2022-12-23T06:58:16.191Z,17.02
2022-12-23T07:00:43.126Z,17.98
2022-12-23T07:03:09.966Z,14.75
2022-12-23T07:05:37.861Z,17.67
2022-12-23T07:08:05.320Z,15.27
2022-12-23T07:10:32.016Z,15.55
2022-12-23T07:12:58.801Z,17.23
2022-12-23T07:15:25.459Z,18.58
2022-12-23T07:17:52.332Z,18.75
2022-12-23T07:20:19.051Z,20.98
2022-12-23T07:22:46.378Z,30.40
2022-12-23T07:25:13.607Z,25.42
2022-12-23T07:27:40.646Z,27.25
2022-12-23T07:30:08.318Z,28.95
2022-12-23T07:32:35.094Z,34.33
2022-12-23T07:35:02.111Z,33.97
2022-12-23T07:37:28.891Z,37.42
2022-12-23T07:39:56.280Z,35.92
2022-12-23T07:45:11.185Z,33.97
2022-12-23T07:47:38.398Z,36.35
2022-12-23T07:50:06.419Z,35.25
2022-12-23T07:52:33.547Z,33.13
2022-12-23T07:55:00.770Z,68.70
2022-12-23T07:57:29.496Z,37.30
2022-12-23T07:59:57.139Z,33.72
2022-12-23T08:02:25.720Z,33.95
2022-12-23T08:04:53.484Z,31.75
2022-12-23T08:07:20.534Z,37.08
2022-12-23T08:09:47.861Z,33.33
2022-12-23T08:12:14.910Z,34.17
2022-12-23T08:14:42.388Z,43.08
2022-12-23T08:17:09.560Z,37.53
2022-12-23T08:19:36.892Z,37.55
2022-12-23T08:22:04.015Z,34.28
2022-12-23T08:24:31.315Z,36.35
2022-12-23T08:26:58.630Z,41.00
2022-12-23T08:29:28.887Z,32.40
2022-12-23T08:31:58.472Z,32.47
2022-12-23T08:34:25.923Z,37.10
2022-12-23T08:36:53.128Z,34.38
2022-12-23T08:39:20.278Z,49.20
2022-12-23T08:41:48.566Z,58.65
2022-12-23T08:44:17.149Z,63.08
2022-12-23T08:46:44.763Z,35.90
2022-12-23T08:49:13.124Z,46.28
2022-12-23T08:51:40.481Z,52.75
2022-12-23T08:54:07.953Z,49.25
2022-12-23T08:56:37.255Z,47.72
2022-12-23T08:59:04.706Z,51.92
2022-12-23T09:01:34.074Z,189.70
2022-12-23T09:04:05.246Z,72.22
2022-12-23T09:06:39.333Z,60.45
2022-12-23T09:09:07.422Z,67.00
2022-12-23T09:11:35.431Z,46.67
2022-12-23T09:14:04.192Z,65.80
2022-12-23T09:16:31.572Z,48.15
2022-12-23T09:18:59.247Z,83.50
2022-12-23T09:21:26.373Z,60.20
2022-12-23T09:23:53.749Z,114.65
2022-12-23T09:26:23.749Z,83.72
2022-12-23T09:28:51.013Z,92.97
2022-12-23T09:31:19.059Z,212.75
2022-12-23T09:33:50.816Z,82.32
2022-12-23T09:36:18.473Z,85.95
2022-12-23T09:38:46.215Z,158.43
2022-12-23T09:41:34.855Z,86.72
2022-12-23T09:44:10.681Z,76.90
2022-12-23T09:46:38.814Z,50.58
2022-12-23T09:49:14.519Z,61.05
2022-12-23T09:51:41.696Z,56.25
2022-12-23T09:54:17.578Z,72.13
2022-12-23T09:56:52.691Z,68.85
2022-12-23T09:59:22.801Z,86.65
2022-12-23T10:02:00.991Z,54.53
2022-12-23T10:04:36.226Z,46.97
2022-12-23T10:07:06.168Z,48.70
2022-12-23T10:09:37.625Z,51.33
2022-12-23T10:12:31.638Z,46.55
2022-12-23T10:15:03.337Z,41.17
2022-12-23T10:17:39.277Z,38.97
2022-12-23T10:20:08.773Z,43.15
2022-12-23T10:22:40.431Z,52.83
2022-12-23T10:25:15.692Z,45.65
2022-12-23T10:27:45.001Z,50.33
2022-12-23T10:30:42.559Z,38.25
2022-12-23T10:33:23.285Z,44.90
2022-12-23T10:36:02.695Z,41.17
2022-12-23T10:38:59.410Z,53.53
2022-12-23T10:41:45.389Z,43.92
2022-12-23T10:44:24.416Z,69.00
2022-12-23T10:47:15.142Z,39.78
2022-12-23T10:50:00.543Z,63.53
2022-12-23T10:52:30.071Z,45.47
2022-12-23T10:54:57.375Z,48.05
2022-12-23T10:57:26.231Z,54.42
2022-12-23T10:59:53.396Z,68.57
2022-12-23T11:02:32.863Z,78.72
2022-12-23T11:05:00.099Z,162.57
2022-12-23T11:07:45.676Z,63.20
2022-12-23T11:10:17.606Z,193.07
2022-12-23T11:12:50.927Z,96.32
2022-12-23T11:15:27.081Z,75.55
2022-12-23T11:18:12.339Z,278.08
2022-12-23T11:20:42.275Z,121.20
2022-12-23T11:23:23.844Z,84.97
2022-12-23T11:26:01.363Z,79.55
2022-12-23T11:28:28.943Z,108.65
2022-12-23T11:31:12.406Z,81.10
2022-12-23T11:33:56.234Z,97.85
2022-12-23T11:36:25.498Z,125.55
2022-12-23T11:39:10.438Z,68.82
2022-12-23T11:41:48.562Z,61.80
2022-12-23T11:44:18.556Z,61.78
2022-12-23T11:46:45.643Z,57.40
2022-12-23T11:49:27.676Z,55.13
2022-12-23T11:52:15.314Z,69.95
2022-12-23T11:54:54.416Z,61.55
2022-12-23T11:57:38.653Z,74.22
2022-12-23T12:00:08.689Z,70.50
2022-12-23T12:02:40.043Z,67.28
2022-12-23T12:05:17.275Z,61.03
2022-12-23T12:07:45.873Z,89.95
2022-12-23T12:10:27.164Z,104.10
2022-12-23T12:12:57.779Z,78.57
2022-12-23T12:15:42.681Z,70.55
2022-12-23T12:18:15.464Z,70.05
2022-12-23T12:20:46.348Z,61.88
2022-12-23T12:23:19.033Z,75.45
2022-12-23T12:25:59.736Z,51.10
2022-12-23T12:28:43.751Z,49.50
2022-12-23T12:31:33.152Z,51.65
2022-12-23T12:34:42.100Z,50.65
2022-12-23T12:37:34.738Z,51.60
2022-12-23T12:40:15.627Z,55.75
2022-12-23T12:42:45.670Z,76.00
2022-12-23T12:45:23.145Z,52.75
2022-12-23T12:48:24.515Z,58.55
2022-12-23T12:51:26.837Z,95.32
2022-12-23T12:54:16.720Z,46.97
2022-12-23T12:56:53.690Z,52.08
2022-12-23T12:59:23.769Z,53.78
2022-12-23T13:01:59.923Z,62.20
2022-12-23T13:04:35.425Z,54.25
2022-12-23T13:07:16.963Z,67.03
2022-12-23T13:10:01.483Z,72.90
2022-12-23T13:12:43.916Z,65.38
2022-12-23T13:15:13.832Z,58.33
2022-12-23T13:17:50.377Z,48.25
2022-12-23T13:20:25.888Z,47.47
2022-12-23T13:23:02.652Z,62.28
2022-12-23T13:25:51.946Z,45.53
2022-12-23T13:28:44.208Z,62.90
2022-12-23T13:31:18.538Z,45.17
2022-12-23T13:34:08.095Z,45.10
2022-12-23T13:36:53.127Z,42.78
2022-12-23T13:39:53.487Z,51.53
2022-12-23T13:42:38.365Z,41.80
2022-12-23T13:45:12.124Z,50.75
2022-12-23T13:47:45.461Z,43.78
2022-12-23T13:50:18.795Z,50.75
2022-12-23T13:53:05.005Z,49.22
2022-12-23T13:55:36.092Z,49.28
2022-12-23T13:58:03.466Z,49.30
2022-12-23T14:00:32.825Z,47.42
2022-12-23T14:03:03.330Z,49.65
2022-12-23T14:05:37.470Z,50.50
2022-12-23T14:08:06.266Z,43.90
2022-12-23T14:10:34.107Z,42.17
2022-12-23T14:13:09.204Z,42.05
2022-12-23T14:15:51.028Z,47.72
2022-12-23T14:18:43.798Z,39.78
2022-12-23T14:21:41.719Z,46.35
2022-12-23T14:24:21.553Z,46.72
2022-12-23T14:27:03.994Z,41.95
2022-12-23T14:29:36.628Z,42.33
2022-12-23T14:32:04.014Z,47.45
2022-12-23T14:34:34.689Z,40.25
2022-12-23T14:37:20.494Z,39.70
2022-12-23T14:39:48.806Z,37.33
2022-12-23T14:42:34.502Z,34.55
2022-12-23T14:45:30.796Z,43.47
2022-12-23T14:52:59.308Z,36.03
2022-12-23T14:55:30.710Z,59.25
2022-12-23T14:58:05.859Z,38.80
2022-12-23T15:00:45.769Z,38.80
2022-12-23T15:03:12.745Z,44.28
2022-12-23T15:05:40.715Z,48.00
2022-12-23T15:08:24.102Z,52.13
2022-12-23T15:10:50.889Z,51.40
2022-12-23T15:13:18.364Z,43.30
2022-12-23T15:16:00.733Z,39.53
2022-12-23T15:18:28.860Z,43.75
2022-12-23T15:21:11.060Z,89.03
2022-12-23T15:23:50.107Z,48.65
2022-12-23T15:26:17.683Z,35.20
2022-12-23T15:28:44.651Z,36.25
2022-12-23T15:31:39.862Z,46.40
2022-12-23T15:34:16.463Z,31.83
2022-12-23T15:36:45.091Z,36.50
2022-12-23T15:39:21.167Z,33.47
2022-12-23T15:41:48.842Z,32.50
2022-12-23T15:44:21.750Z,33.22
2022-12-23T15:46:50.850Z,31.83
2022-12-23T15:49:20.211Z,38.72
2022-12-23T15:52:08.093Z,33.38
2022-12-23T15:54:44.450Z,32.97
2022-12-23T15:57:18.768Z,33.85
2022-12-23T15:59:45.804Z,66.05
2022-12-23T16:05:25.971Z,23.10
2022-12-23T16:08:12.082Z,23.23
2022-12-23T16:10:39.917Z,31.52
2022-12-23T16:13:21.218Z,31.65
2022-12-23T16:15:48.207Z,31.73
2022-12-23T16:18:33.286Z,31.77
2022-12-23T16:21:04.834Z,29.30
2022-12-23T16:23:34.791Z,27.40
2022-12-23T16:26:02.575Z,29.55
2022-12-23T16:28:40.795Z,81.28
2022-12-23T16:31:10.723Z,72.22
2022-12-23T16:33:50.229Z,33.78
2022-12-23T16:36:20.419Z,35.35
2022-12-23T16:38:48.885Z,37.22
2022-12-23T16:41:15.915Z,47.90
2022-12-23T16:43:51.244Z,61.33
2022-12-23T16:46:20.928Z,101.05
2022-12-23T16:48:50.577Z,55.83
2022-12-23T16:51:20.290Z,43.13
2022-12-23T16:53:51.359Z,43.22
2022-12-23T16:56:21.016Z,46.75
2022-12-23T16:58:48.148Z,42.53
2022-12-23T17:01:18.253Z,41.33
2022-12-23T17:03:45.365Z,46.47
2022-12-23T17:06:16.136Z,44.38
2022-12-23T17:08:43.600Z,58.80
2022-12-23T17:11:20.180Z,67.70
2022-12-23T17:13:47.274Z,58.47
2022-12-23T17:16:19.876Z,52.42
2022-12-23T17:18:50.948Z,58.40
2022-12-23T17:21:23.943Z,168.43
2022-12-23T17:23:52.373Z,65.40
2022-12-23T17:26:19.657Z,64.63
2022-12-23T17:28:46.467Z,101.30
2022-12-23T17:31:15.549Z,46.88
2022-12-23T17:33:44.342Z,40.70
2022-12-23T17:36:12.004Z,43.58
2022-12-23T17:38:39.121Z,48.00
2022-12-23T17:41:05.995Z,65.90
2022-12-23T17:43:33.565Z,57.58
2022-12-23T17:46:00.566Z,73.45
2022-12-23T17:48:31.732Z,100.60
2022-12-23T17:50:59.080Z,62.72
2022-12-23T17:53:26.014Z,52.35
2022-12-23T17:55:52.965Z,51.22
2022-12-23T17:58:20.185Z,54.60
2022-12-23T18:00:47.058Z,67.25
2022-12-23T18:03:23.272Z,55.05
2022-12-23T18:05:53.113Z,61.15
2022-12-23T18:08:24.328Z,90.50
2022-12-23T18:10:51.416Z,67.70
2022-12-23T18:13:19.772Z,66.68
2022-12-23T18:15:48.034Z,57.10
2022-12-23T18:18:28.081Z,60.10
2022-12-23T18:20:58.586Z,76.50
2022-12-23T18:23:28.447Z,76.60
2022-12-23T18:25:56.190Z,55.28
2022-12-23T18:28:23.893Z,51.90
2022-12-23T18:30:52.028Z,22.45
2022-12-23T18:33:19.306Z,25.67
2022-12-23T18:35:48.604Z,20.95
2022-12-23T18:38:16.416Z,31.27
2022-12-23T18:40:44.127Z,28.67
2022-12-23T18:43:24.800Z,34.80
2022-12-23T18:45:53.975Z,22.42
2022-12-23T18:48:21.738Z,21.00
2022-12-23T18:50:48.775Z,32.75
2022-12-23T18:53:23.806Z,25.33
2022-12-23T18:55:51.369Z,25.33
2022-12-23T18:58:18.621Z,31.15
2022-12-23T19:00:46.368Z,23.08
2022-12-23T19:03:30.895Z,23.15
2022-12-23T19:06:06.857Z,21.73
2022-12-23T19:08:36.105Z,23.73
2022-12-23T19:11:19.518Z,20.90
2022-12-23T19:13:46.972Z,19.10
2022-12-23T19:16:18.864Z,21.23
2022-12-23T19:18:46.745Z,26.08
2022-12-23T19:21:14.424Z,28.05
2022-12-23T19:23:41.984Z,26.17
2022-12-23T19:26:10.623Z,20.35
2022-12-23T19:28:38.757Z,16.45
2022-12-23T19:31:09.502Z,26.63
2022-12-23T19:33:38.436Z,27.48
2022-12-23T19:36:20.530Z,155.15
2022-12-23T19:38:47.729Z,33.67
2022-12-23T19:41:14.931Z,52.50
2022-12-23T19:43:44.218Z,58.38
2022-12-23T19:46:12.680Z,47.63
2022-12-23T19:48:40.365Z,48.53
2022-12-23T19:51:12.449Z,46.33
2022-12-23T19:53:41.556Z,40.33
2022-12-23T19:56:12.839Z,45.28
2022-12-23T19:58:41.963Z,28.35
2022-12-23T20:01:13.806Z,46.85
2022-12-23T20:03:42.139Z,41.42
2022-12-23T20:06:15.667Z,44.88
2022-12-23T20:08:44.214Z,34.15
2022-12-23T20:11:15.007Z,33.13
2022-12-23T20:13:42.927Z,46.33
2022-12-23T20:16:10.613Z,44.15
2022-12-23T20:18:38.505Z,48.25
2022-12-23T20:21:07.091Z,37.95
2022-12-23T20:23:35.091Z,52.63
2022-12-23T20:26:02.263Z,58.63
2022-12-23T20:28:29.486Z,54.15
2022-12-23T20:31:12.838Z,41.50
2022-12-23T20:33:40.355Z,35.08
2022-12-23T20:36:07.771Z,39.58
2022-12-23T20:38:37.266Z,40.78
2022-12-23T20:41:04.447Z,34.50
2022-12-23T20:43:34.558Z,47.53
2022-12-23T20:46:02.724Z,45.33
2022-12-23T20:48:34.011Z,37.38
2022-12-23T20:51:15.463Z,28.20
2022-12-23T20:53:43.195Z,40.38
2022-12-23T20:56:15.324Z,27.55
2022-12-23T20:58:54.914Z,28.13
2022-12-23T21:01:26.708Z,20.42
2022-12-23T21:03:54.645Z,23.38
2022-12-23T21:06:22.286Z,21.45
2022-12-23T21:08:49.549Z,21.77
2022-12-23T21:11:17.036Z,33.60
2022-12-23T21:13:47.688Z,37.92
2022-12-23T21:16:15.401Z,23.15
2022-12-23T21:18:44.413Z,25.38
2022-12-23T21:21:11.957Z,26.50
2022-12-23T21:23:40.887Z,23.52
2022-12-23T21:26:19.242Z,22.20
2022-12-23T21:28:47.825Z,21.83
2022-12-23T21:31:16.782Z,23.40
2022-12-23T21:33:44.998Z,17.25
2022-12-23T21:36:19.835Z,35.22
2022-12-23T21:38:48.278Z,29.65
2022-12-23T21:41:17.949Z,25.40
2022-12-23T21:43:45.452Z,36.25
2022-12-23T21:46:14.824Z,38.22
2022-12-23T21:48:42.261Z,28.23
2022-12-23T21:51:17.464Z,30.08
2022-12-23T21:53:46.313Z,31.48
2022-12-23T21:56:18.225Z,35.50
2022-12-23T21:58:45.764Z,25.02
2022-12-23T22:01:15.866Z,24.17
2022-12-23T22:03:43.989Z,28.00
2022-12-23T22:06:14.826Z,29.40
2022-12-23T22:08:42.355Z,32.95
2022-12-23T22:11:14.383Z,23.60
2022-12-23T22:13:41.614Z,28.77
2022-12-23T22:16:14.038Z,21.98
2022-12-23T22:18:41.696Z,33.38
2022-12-23T22:21:11.097Z,31.02
2022-12-23T22:23:38.201Z,27.13
2022-12-23T22:26:06.319Z,23.13
2022-12-23T22:28:35.215Z,24.98
2022-12-23T22:31:12.698Z,17.42
2022-12-23T22:33:39.833Z,27.58
2022-12-23T22:36:07.362Z,34.67
2022-12-23T22:38:34.436Z,30.40
2022-12-23T22:41:01.336Z,27.55
2022-12-23T22:43:28.403Z,22.40
2022-12-23T22:46:00.338Z,26.08
2022-12-23T22:48:29.761Z,30.80
2022-12-23T22:51:09.541Z,22.80
2022-12-23T22:53:37.321Z,34.05
2022-12-23T22:56:05.145Z,19.48
2022-12-23T22:58:33.601Z,23.27
2022-12-23T23:01:01.029Z,23.08
2022-12-23T23:03:28.524Z,31.52
2022-12-23T23:06:09.740Z,25.27
2022-12-23T23:08:36.754Z,23.70
2022-12-23T23:11:04.935Z,22.35
2022-12-23T23:13:34.816Z,34.22
2022-12-23T23:16:03.273Z,27.88
2022-12-23T23:18:30.587Z,19.90
2022-12-23T23:20:57.744Z,21.92
2022-12-23T23:23:24.675Z,20.45
2022-12-23T23:25:51.723Z,20.23
2022-12-23T23:28:19.396Z,30.05
2022-12-23T23:30:46.596Z,34.63
2022-12-23T23:33:14.077Z,31.70
2022-12-23T23:35:40.979Z,25.10
2022-12-23T23:38:08.839Z,32.15
2022-12-23T23:40:35.856Z,28.27
2022-12-23T23:43:03.347Z,20.35
2022-12-23T23:45:30.482Z,27.67
2022-12-23T23:47:57.768Z,23.58
2022-12-23T23:50:24.783Z,27.67
2022-12-23T23:52:52.137Z,21.73
2022-12-23T23:55:18.983Z,24.45
2022-12-23T23:57:46.173Z,14.50
